Blue Jay, California
Current Conditions -  °F | °C
As of 8:45 AM on Saturday 25 Oct 2014 (Local Time) from KSBD Reporting Station
Broken Clouds Broken Clouds  
Wind Chill: 68°   Ceiling: 9000
Heat Index: 68°   Visibility: 10mi
Dew Point: 37°   Wind: 0mph
Humidity: 33%   Direction: NA
Pressure: 30.07"   Gusts: NA
Location:  34.25°N, 117.21°W
Report Text: KSBD 251545Z 00000KT 10SM BKN090 20/03 A3007
Loading
Personal Weather Stations






























Interactive Weather Map New forecast layout! Learn more

10-Day Weather Forecast

Advertisements
Track Severe Weather on mobile